createdAt,value
2023-01-02T00:02:05.910Z,80.54
2023-01-02T00:07:06.896Z,80.51
2023-01-02T00:12:09.962Z,80.34
2023-01-02T00:17:11.065Z,80.28
2023-01-02T00:22:12.594Z,80.40
2023-01-02T00:27:14.335Z,80.40
2023-01-02T00:32:15.529Z,80.41
2023-01-02T00:37:16.489Z,80.43
2023-01-02T00:42:17.455Z,80.53
2023-01-02T00:47:18.527Z,80.62
2023-01-02T00:52:19.475Z,80.68
2023-01-02T00:57:20.463Z,80.77
2023-01-02T01:02:21.546Z,80.83
2023-01-02T01:07:22.646Z,80.66
2023-01-02T01:12:23.623Z,80.60
2023-01-02T01:17:24.593Z,80.58
2023-01-02T01:22:25.571Z,80.74
2023-01-02T01:27:26.479Z,80.99
2023-01-02T01:32:28.784Z,81.12
2023-01-02T01:37:29.868Z,81.27
2023-01-02T01:42:32.906Z,81.30
2023-01-02T01:47:41.918Z,81.42
2023-01-02T01:52:54.310Z,81.46
2023-01-02T01:58:03.360Z,81.53
2023-01-02T02:03:08.253Z,81.61
2023-01-02T02:08:34.556Z,81.90
2023-01-02T02:13:35.806Z,82.17
2023-01-02T02:18:58.878Z,82.46
2023-01-02T02:24:21.718Z,82.76
2023-01-02T02:29:28.585Z,82.75
2023-01-02T02:35:15.623Z,82.73
2023-01-02T02:40:32.097Z,82.91
2023-01-02T02:46:02.050Z,83.08
2023-01-02T02:51:17.564Z,83.03
2023-01-02T02:56:21.069Z,82.91
2023-01-02T03:01:30.185Z,82.81
2023-01-02T03:06:49.872Z,82.64
2023-01-02T03:11:59.167Z,82.48
2023-01-02T03:17:04.712Z,82.38
2023-01-02T03:22:12.989Z,82.27
2023-01-02T03:27:21.295Z,82.12
2023-01-02T03:32:28.499Z,82.00
2023-01-02T03:37:32.560Z,81.85
2023-01-02T03:42:51.147Z,81.75
2023-01-02T03:48:07.358Z,81.73
2023-01-02T03:53:08.322Z,81.79
2023-01-02T03:58:29.779Z,81.83
2023-01-02T04:03:40.560Z,81.90
2023-01-02T04:08:48.882Z,82.16
2023-01-02T04:13:59.074Z,82.20
2023-01-02T04:19:24.274Z,82.39
2023-01-02T04:24:31.900Z,82.51
2023-01-02T04:29:32.975Z,82.48
2023-01-02T04:34:36.895Z,82.14
2023-01-02T04:39:38.949Z,82.27
2023-01-02T04:44:39.894Z,82.58
2023-01-02T04:49:40.835Z,82.93
2023-01-02T04:54:41.790Z,83.37
2023-01-02T04:59:42.749Z,83.62
2023-01-02T05:04:44.467Z,83.68
2023-01-02T05:09:45.466Z,83.57
2023-01-02T05:14:46.479Z,83.45
2023-01-02T05:19:47.444Z,83.33
2023-01-02T05:24:48.401Z,83.26
2023-01-02T05:29:49.358Z,83.18
2023-01-02T05:34:50.326Z,83.13
2023-01-02T05:39:51.332Z,82.88
2023-01-02T05:44:52.353Z,83.20
2023-01-02T05:49:53.317Z,83.00
2023-01-02T05:54:54.315Z,83.02
2023-01-02T05:59:55.280Z,82.74
2023-01-02T06:04:56.225Z,82.93
2023-01-02T06:09:57.247Z,82.90
2023-01-02T06:14:58.251Z,82.87
2023-01-02T06:19:59.167Z,83.06
2023-01-02T06:25:00.169Z,83.10
2023-01-02T06:30:01.148Z,83.63
2023-01-02T06:35:02.149Z,83.81
2023-01-02T06:40:03.889Z,83.67
2023-01-02T06:45:05.830Z,83.49
2023-01-02T06:50:07.773Z,83.41
2023-01-02T06:55:08.850Z,83.63
2023-01-02T07:00:10.768Z,83.40
2023-01-02T07:05:12.240Z,83.75
2023-01-02T07:10:13.232Z,83.98
2023-01-02T07:15:14.329Z,84.18
2023-01-02T07:20:15.849Z,84.43
2023-01-02T07:25:17.988Z,84.50
2023-01-02T07:30:18.958Z,84.45
2023-01-02T07:35:20.405Z,84.43
2023-01-02T07:40:21.623Z,84.50
2023-01-02T07:45:22.627Z,84.55
2023-01-02T07:50:23.630Z,84.55
2023-01-02T07:55:24.623Z,84.49
2023-01-02T08:00:25.598Z,84.39
2023-01-02T08:05:26.587Z,84.26
2023-01-02T08:10:28.062Z,84.13
2023-01-02T08:15:29.453Z,83.94
2023-01-02T08:20:30.663Z,83.61
2023-01-02T08:25:32.057Z,83.19
2023-01-02T08:30:33.192Z,82.84
2023-01-02T08:35:38.792Z,82.57
2023-01-02T08:40:40.515Z,82.20
2023-01-02T08:45:41.746Z,81.84
2023-01-02T08:50:42.913Z,81.46
2023-01-02T08:55:43.957Z,81.19
2023-01-02T09:00:44.968Z,80.93
2023-01-02T09:05:45.994Z,80.64
2023-01-02T09:10:46.942Z,80.35
2023-01-02T09:15:49.028Z,79.94
2023-01-02T09:20:50.149Z,79.36
2023-01-02T09:25:51.333Z,78.57
2023-01-02T09:30:52.653Z,77.93
2023-01-02T09:35:53.837Z,77.47
2023-01-02T09:40:56.854Z,76.96
2023-01-02T09:46:01.332Z,76.36
2023-01-02T09:51:07.774Z,75.89
2023-01-02T09:56:31.896Z,75.02
2023-01-02T10:02:19.699Z,74.41
2023-01-02T10:07:33.208Z,73.38
2023-01-02T10:12:57.608Z,72.32
2023-01-02T10:18:23.906Z,71.94
2023-01-02T10:24:00.485Z,71.54
2023-01-02T10:29:21.354Z,70.94
2023-01-02T10:34:25.761Z,70.76
2023-01-02T10:39:31.995Z,70.01
2023-01-02T10:44:35.148Z,69.46
2023-01-02T10:49:37.353Z,69.12
2023-01-02T10:54:55.050Z,68.99
2023-01-02T11:00:01.559Z,68.95
2023-01-02T11:05:04.444Z,68.45
2023-01-02T11:10:22.836Z,67.95
2023-01-02T11:15:28.161Z,67.97
2023-01-02T11:20:33.094Z,67.62
2023-01-02T11:25:42.320Z,67.21
2023-01-02T11:30:46.740Z,66.37
2023-01-02T11:35:54.760Z,65.90
2023-01-02T11:40:59.021Z,65.27
2023-01-02T11:46:05.574Z,64.67
2023-01-02T11:51:17.792Z,64.35
2023-01-02T11:56:32.855Z,64.53
2023-01-02T12:02:14.570Z,64.52
2023-01-02T12:07:29.104Z,64.09
2023-01-02T12:12:30.708Z,63.89
2023-01-02T12:17:32.304Z,63.41
2023-01-02T12:22:52.326Z,63.38
2023-01-02T12:27:56.852Z,63.34
2023-01-02T12:33:04.335Z,62.90
2023-01-02T12:38:09.149Z,62.95
2023-01-02T12:43:10.703Z,62.89
2023-01-02T12:48:29.352Z,62.67
2023-01-02T12:53:38.586Z,62.42
2023-01-02T12:58:48.981Z,62.17
2023-01-02T13:03:58.269Z,62.27
2023-01-02T13:09:05.846Z,62.02
2023-01-02T13:14:10.012Z,61.86
2023-01-02T13:19:22.501Z,61.62
2023-01-02T13:24:25.222Z,61.71
2023-01-02T13:29:39.462Z,61.78
2023-01-02T13:34:51.753Z,61.88
2023-01-02T13:39:54.939Z,62.08
2023-01-02T13:44:57.655Z,62.04
2023-01-02T13:50:12.945Z,62.30
2023-01-02T13:55:28.694Z,62.32
2023-01-02T14:00:33.868Z,62.49
2023-01-02T14:05:54.022Z,62.84
2023-01-02T14:11:16.030Z,63.17
2023-01-02T14:16:30.161Z,64.04
2023-01-02T14:21:36.522Z,64.60
2023-01-02T14:26:39.467Z,64.83
2023-01-02T14:31:41.649Z,65.17
2023-01-02T14:36:44.161Z,65.60
2023-01-02T14:42:10.944Z,65.67
2023-01-02T14:47:13.824Z,65.81
2023-01-02T14:52:21.003Z,66.25
2023-01-02T14:57:22.642Z,66.62
2023-01-02T15:02:30.559Z,67.09
2023-01-02T15:07:41.251Z,68.03
2023-01-02T15:13:07.544Z,69.28
2023-01-02T15:18:16.680Z,70.29
2023-01-02T15:23:22.773Z,71.00
2023-01-02T15:28:26.027Z,71.57
2023-01-02T15:33:28.959Z,72.21
2023-01-02T15:38:31.087Z,72.33
2023-01-02T15:43:53.675Z,72.79
2023-01-02T15:48:55.813Z,73.24
2023-01-02T15:54:03.109Z,73.46
2023-01-02T15:59:24.312Z,73.67
2023-01-02T16:04:30.243Z,73.89
2023-01-02T16:09:31.899Z,74.18
2023-01-02T16:14:39.684Z,74.61
2023-01-02T16:19:44.510Z,75.03
2023-01-02T16:24:57.304Z,75.22
2023-01-02T16:29:59.066Z,75.64
2023-01-02T16:35:24.103Z,76.14
2023-01-02T16:41:01.379Z,76.31
2023-01-02T16:45:48.352Z,76.62
2023-01-02T16:50:50.620Z,76.97
2023-01-02T16:55:53.046Z,76.87
2023-01-02T17:00:55.451Z,76.96
2023-01-02T17:06:03.011Z,77.58
2023-01-02T17:11:05.180Z,77.81
2023-01-02T17:16:07.223Z,78.60
2023-01-02T17:21:09.194Z,78.78
2023-01-02T17:26:10.878Z,78.76
2023-01-02T17:31:15.422Z,79.08
2023-01-02T17:36:17.257Z,79.20
2023-01-02T17:41:18.974Z,79.45
2023-01-02T17:46:58.123Z,79.43
2023-01-02T17:51:42.105Z,79.49
2023-01-02T17:56:43.943Z,79.64
2023-01-02T18:01:46.375Z,79.92
2023-01-02T18:06:48.054Z,80.33
2023-01-02T18:11:50.009Z,80.34
2023-01-02T18:16:54.263Z,80.53
2023-01-02T18:21:55.978Z,81.07
2023-01-02T18:27:02.280Z,81.25
2023-01-02T18:32:10.217Z,81.40
2023-01-02T18:37:30.193Z,81.63
2023-01-02T18:42:33.660Z,81.82
2023-01-02T18:47:37.237Z,81.92
2023-01-02T18:52:40.088Z,81.80
2023-01-02T18:57:45.183Z,81.84
2023-01-02T19:03:16.234Z,81.86
2023-01-02T19:08:25.112Z,81.95
2023-01-02T19:13:26.784Z,82.16
2023-01-02T19:18:39.590Z,82.19
2023-01-02T19:23:45.750Z,82.28
2023-01-02T19:28:55.667Z,82.21
2023-01-02T19:33:59.134Z,82.48
2023-01-02T19:39:00.744Z,82.60
2023-01-02T19:44:02.367Z,82.66
2023-01-02T19:49:03.934Z,82.58
2023-01-02T19:54:05.942Z,82.49
2023-01-02T19:59:12.607Z,82.41
2023-01-02T20:04:15.983Z,82.46
2023-01-02T20:09:19.632Z,82.60
2023-01-02T20:14:21.272Z,82.68
2023-01-02T20:19:22.901Z,82.56
2023-01-02T20:24:25.631Z,82.74
2023-01-02T20:29:28.349Z,82.93
2023-01-02T20:34:29.991Z,83.04
2023-01-02T20:39:31.857Z,83.09
2023-01-02T20:44:33.809Z,83.12
2023-01-02T20:49:35.499Z,83.16
2023-01-02T20:54:37.532Z,83.26
2023-01-02T20:59:40.305Z,83.37
2023-01-02T21:04:42.055Z,83.26
2023-01-02T21:09:43.641Z,83.34
2023-01-02T21:14:45.204Z,83.62
2023-01-02T21:19:46.890Z,83.61
2023-01-02T21:24:48.886Z,83.45
2023-01-02T21:29:50.547Z,83.50
2023-01-02T21:34:52.123Z,83.52
2023-01-02T21:39:53.682Z,83.65
2023-01-02T21:44:55.537Z,83.68
2023-01-02T21:49:57.092Z,83.47
2023-01-02T21:54:58.641Z,83.43
2023-01-02T22:00:00.634Z,83.39
2023-01-02T22:05:02.245Z,83.49
2023-01-02T22:10:04.349Z,83.69
2023-01-02T22:15:07.633Z,83.81
2023-01-02T22:20:09.663Z,83.97
2023-01-02T22:25:11.446Z,84.13
2023-01-02T22:30:26.167Z,84.22
2023-01-02T22:35:33.075Z,84.40
2023-01-02T22:40:34.710Z,84.46
2023-01-02T22:45:41.562Z,84.48
2023-01-02T22:50:44.423Z,84.49
2023-01-02T22:55:46.297Z,84.53
2023-01-02T23:00:51.067Z,84.57
2023-01-02T23:05:52.914Z,84.59
2023-01-02T23:10:54.556Z,84.58
2023-01-02T23:16:15.137Z,84.54
2023-01-02T23:21:17.045Z,84.70
2023-01-02T23:26:18.887Z,84.95
2023-01-02T23:31:27.173Z,85.09
2023-01-02T23:36:28.782Z,85.05
2023-01-02T23:41:30.462Z,84.92
2023-01-02T23:46:32.391Z,84.82
2023-01-02T23:51:34.110Z,84.85
2023-01-02T23:56:37.178Z,84.90
